createdAt,value
2023-01-20T00:01:09.756Z,27.17
2023-01-20T00:03:37.580Z,28.40
2023-01-20T00:06:04.587Z,30.57
2023-01-20T00:08:31.262Z,27.70
2023-01-20T00:10:58.281Z,27.50
2023-01-20T00:13:24.990Z,26.77
2023-01-20T00:15:51.737Z,29.33
2023-01-20T00:18:18.420Z,27.47
2023-01-20T00:20:45.448Z,28.53
2023-01-20T00:23:12.926Z,25.80
2023-01-20T00:25:39.626Z,26.53
2023-01-20T00:28:06.476Z,25.17
2023-01-20T00:30:33.788Z,26.20
2023-01-20T00:33:00.868Z,27.60
2023-01-20T00:35:27.516Z,26.87
2023-01-20T00:37:54.332Z,27.93
2023-01-20T00:40:21.470Z,25.47
2023-01-20T00:42:48.397Z,23.47
2023-01-20T00:45:15.869Z,24.23
2023-01-20T00:47:43.316Z,26.50
2023-01-20T00:50:10.714Z,23.90
2023-01-20T00:52:37.588Z,23.90
2023-01-20T00:55:04.801Z,26.10
2023-01-20T00:57:31.696Z,24.20
2023-01-20T00:59:58.701Z,24.20
2023-01-20T01:02:25.533Z,25.30
2023-01-20T01:04:52.457Z,25.63
2023-01-20T01:07:20.103Z,26.43
2023-01-20T01:09:47.051Z,25.40
2023-01-20T01:12:17.293Z,23.40
2023-01-20T01:14:44.546Z,24.00
2023-01-20T01:17:11.694Z,26.83
2023-01-20T01:19:38.536Z,22.40
2023-01-20T01:22:05.822Z,24.30
2023-01-20T01:24:32.675Z,26.20
2023-01-20T01:26:59.920Z,23.80
2023-01-20T01:29:29.791Z,23.60
2023-01-20T01:31:56.974Z,24.77
2023-01-20T01:34:24.271Z,25.93
2023-01-20T01:36:51.135Z,25.57
2023-01-20T01:39:18.119Z,26.83
2023-01-20T01:41:44.968Z,26.03
2023-01-20T01:44:13.747Z,25.97
2023-01-20T01:46:41.849Z,27.37
2023-01-20T01:49:30.789Z,27.60
2023-01-20T01:52:09.861Z,27.13
2023-01-20T01:54:40.260Z,26.13
2023-01-20T01:57:07.890Z,26.77
2023-01-20T01:59:37.288Z,27.70
2023-01-20T02:02:04.245Z,26.33
2023-01-20T02:04:33.477Z,28.87
2023-01-20T02:07:12.716Z,25.43
2023-01-20T02:09:41.153Z,27.80
2023-01-20T02:12:18.709Z,28.07
2023-01-20T02:14:56.778Z,27.77
2023-01-20T02:17:49.384Z,29.40
2023-01-20T02:20:53.856Z,29.57
2023-01-20T02:23:32.812Z,27.30
2023-01-20T02:26:39.671Z,25.40
2023-01-20T02:29:12.349Z,27.53
2023-01-20T02:32:07.305Z,27.40
2023-01-20T02:34:50.844Z,26.77
2023-01-20T02:37:22.255Z,27.30
2023-01-20T02:40:03.797Z,24.37
2023-01-20T02:42:42.956Z,23.10
2023-01-20T02:45:22.927Z,24.47
2023-01-20T02:48:04.286Z,22.70
2023-01-20T02:51:08.135Z,22.90
2023-01-20T02:53:46.961Z,21.93
2023-01-20T02:56:15.164Z,24.53
2023-01-20T02:58:59.441Z,25.10
2023-01-20T03:01:38.183Z,25.27
2023-01-20T03:04:09.555Z,22.87
2023-01-20T03:06:41.008Z,23.57
2023-01-20T03:09:13.235Z,25.80
2023-01-20T03:11:46.601Z,23.10
2023-01-20T03:14:15.071Z,24.93
2023-01-20T03:16:42.780Z,24.50
2023-01-20T03:19:10.673Z,22.73
2023-01-20T03:21:37.910Z,22.03
2023-01-20T03:24:07.413Z,21.40
2023-01-20T03:26:34.786Z,23.80
2023-01-20T03:29:06.396Z,20.90
2023-01-20T03:31:46.134Z,22.47
2023-01-20T03:34:17.661Z,20.83
2023-01-20T03:36:46.278Z,22.50
2023-01-20T03:39:13.655Z,25.80
2023-01-20T03:41:55.541Z,21.90
2023-01-20T03:44:47.508Z,20.50
2023-01-20T03:47:36.039Z,21.20
2023-01-20T03:50:05.539Z,22.17
2023-01-20T03:52:47.279Z,22.00
2023-01-20T03:55:27.348Z,20.00
2023-01-20T03:58:04.749Z,21.00
2023-01-20T04:00:37.965Z,21.87
2023-01-20T04:03:12.856Z,20.60
2023-01-20T04:05:41.643Z,19.80
2023-01-20T04:08:11.130Z,19.30
2023-01-20T04:10:42.328Z,21.87
2023-01-20T04:13:09.500Z,20.17
2023-01-20T04:15:41.150Z,20.87
2023-01-20T04:18:19.402Z,20.73
2023-01-20T04:20:50.539Z,21.20
2023-01-20T04:23:20.399Z,20.50
2023-01-20T04:25:47.303Z,20.80
2023-01-20T04:28:14.198Z,19.67
2023-01-20T04:30:41.245Z,20.27
2023-01-20T04:33:08.530Z,22.20
2023-01-20T04:35:35.756Z,19.60
2023-01-20T04:38:02.582Z,18.57
2023-01-20T04:40:29.493Z,18.37
2023-01-20T04:42:56.575Z,20.40
2023-01-20T04:45:23.638Z,17.33
2023-01-20T04:47:50.480Z,16.73
2023-01-20T04:50:17.625Z,19.07
2023-01-20T04:52:44.892Z,18.27
2023-01-20T04:55:13.330Z,18.67
2023-01-20T04:57:40.900Z,19.20
2023-01-20T05:00:11.120Z,20.77
2023-01-20T05:02:38.454Z,21.90
2023-01-20T05:05:05.638Z,19.67
2023-01-20T05:07:32.567Z,21.73
2023-01-20T05:09:59.359Z,19.80
2023-01-20T05:12:26.238Z,20.80
2023-01-20T05:14:53.467Z,19.90
2023-01-20T05:17:20.779Z,19.80
2023-01-20T05:19:47.580Z,18.13
2023-01-20T05:22:14.848Z,19.37
2023-01-20T05:24:42.180Z,22.10
2023-01-20T05:27:09.104Z,22.60
2023-01-20T05:29:36.116Z,20.90
2023-01-20T05:32:03.084Z,17.67
2023-01-20T05:34:30.332Z,20.77
2023-01-20T05:36:57.244Z,18.10
2023-01-20T05:39:25.936Z,21.70
2023-01-20T05:41:52.775Z,19.80
2023-01-20T05:44:19.992Z,21.40
2023-01-20T05:46:46.943Z,20.30
2023-01-20T05:49:13.959Z,22.40
2023-01-20T05:51:40.992Z,20.80
2023-01-20T05:54:07.796Z,21.30
2023-01-20T05:56:34.588Z,19.20
2023-01-20T05:59:02.155Z,20.30
2023-01-20T06:01:29.135Z,21.83
2023-01-20T06:03:56.120Z,19.47
2023-01-20T06:06:23.070Z,19.30
2023-01-20T06:08:53.260Z,17.50
2023-01-20T06:11:20.849Z,19.53
2023-01-20T06:13:48.600Z,21.60
2023-01-20T06:16:17.972Z,17.73
2023-01-20T06:18:44.983Z,19.23
2023-01-20T06:21:12.487Z,18.40
2023-01-20T06:23:39.338Z,19.00
2023-01-20T06:26:08.671Z,17.43
2023-01-20T06:28:35.887Z,19.23
2023-01-20T06:31:08.663Z,18.57
2023-01-20T06:33:36.220Z,19.47
2023-01-20T06:36:07.156Z,19.07
2023-01-20T06:38:35.932Z,19.20
2023-01-20T06:41:08.781Z,19.07
2023-01-20T06:43:35.873Z,20.90
2023-01-20T06:46:06.897Z,22.60
2023-01-20T06:48:35.138Z,21.07
2023-01-20T06:51:07.911Z,20.57
2023-01-20T06:53:34.676Z,20.23
2023-01-20T06:56:02.051Z,19.00
2023-01-20T06:58:31.040Z,19.40
2023-01-20T07:01:03.860Z,19.50
2023-01-20T07:03:31.068Z,18.77
2023-01-20T07:06:07.359Z,18.30
2023-01-20T07:08:33.992Z,19.43
2023-01-20T07:11:00.606Z,21.10
2023-01-20T07:13:28.564Z,19.07
2023-01-20T07:15:55.172Z,19.47
2023-01-20T07:18:21.821Z,21.27
2023-01-20T07:20:53.757Z,20.20
2023-01-20T07:23:20.366Z,19.23
2023-01-20T07:25:46.969Z,20.50
2023-01-20T07:28:13.657Z,17.80
2023-01-20T07:30:40.592Z,19.13
2023-01-20T07:33:07.272Z,19.23
2023-01-20T07:35:33.936Z,17.40
2023-01-20T07:38:00.568Z,18.90
2023-01-20T07:40:27.184Z,18.07
2023-01-20T07:42:54.274Z,17.87
2023-01-20T07:45:21.225Z,20.20
2023-01-20T07:47:47.877Z,19.47
2023-01-20T07:50:14.960Z,20.03
2023-01-20T07:52:42.398Z,18.30
2023-01-20T07:55:09.404Z,20.50
2023-01-20T07:57:36.017Z,23.17
2023-01-20T08:00:02.911Z,21.60
2023-01-20T08:02:29.875Z,20.07
2023-01-20T08:04:56.581Z,21.27
2023-01-20T08:07:23.582Z,19.80
2023-01-20T08:09:50.197Z,21.87
2023-01-20T08:12:16.856Z,21.97
2023-01-20T08:14:43.690Z,23.27
2023-01-20T08:17:10.654Z,23.47
2023-01-20T08:19:37.325Z,24.47
2023-01-20T08:22:03.962Z,21.50
2023-01-20T08:24:30.813Z,22.33
2023-01-20T08:26:57.485Z,23.40
2023-01-20T08:29:24.176Z,22.37
2023-01-20T08:31:50.919Z,21.80
2023-01-20T08:34:18.722Z,23.03
2023-01-20T08:36:45.550Z,21.70
2023-01-20T08:39:14.793Z,20.10
2023-01-20T08:41:45.225Z,21.37
2023-01-20T08:44:11.998Z,21.80
2023-01-20T08:46:41.647Z,21.33
2023-01-20T08:49:10.505Z,20.20
2023-01-20T08:51:37.680Z,20.37
2023-01-20T08:54:04.696Z,21.07
2023-01-20T08:56:31.904Z,21.27
2023-01-20T08:58:59.379Z,20.30
2023-01-20T09:01:29.318Z,19.47
2023-01-20T09:04:05.436Z,21.73
2023-01-20T09:06:45.377Z,20.33
2023-01-20T09:09:13.958Z,20.10
2023-01-20T09:11:41.100Z,20.47
2023-01-20T09:14:07.746Z,19.80
2023-01-20T09:16:35.310Z,19.97
2023-01-20T09:19:03.409Z,21.87
2023-01-20T09:21:30.323Z,20.57
2023-01-20T09:23:57.290Z,22.67
2023-01-20T09:26:35.221Z,20.50
2023-01-20T09:29:09.586Z,21.67
2023-01-20T09:31:46.050Z,20.80
2023-01-20T09:34:19.298Z,20.40
2023-01-20T09:36:49.752Z,19.60
2023-01-20T09:39:36.186Z,21.00
2023-01-20T09:42:44.618Z,19.70
2023-01-20T09:45:51.063Z,20.23
2023-01-20T09:48:54.560Z,20.57
2023-01-20T09:51:48.866Z,20.40
2023-01-20T09:54:28.725Z,18.77
2023-01-20T09:57:00.028Z,20.77
2023-01-20T10:00:01.954Z,19.70
2023-01-20T10:02:34.517Z,21.20
2023-01-20T10:05:10.720Z,19.20
2023-01-20T10:07:51.014Z,19.27
2023-01-20T10:10:28.733Z,18.70
2023-01-20T10:13:14.313Z,18.90
2023-01-20T10:15:47.321Z,17.57
2023-01-20T10:18:52.153Z,20.13
2023-01-20T10:21:54.917Z,18.20
2023-01-20T10:24:52.485Z,20.00
2023-01-20T10:27:19.506Z,19.13
2023-01-20T10:29:51.956Z,21.60
2023-01-20T10:32:25.249Z,21.40
2023-01-20T10:34:56.736Z,18.80
2023-01-20T10:37:24.633Z,19.60
2023-01-20T10:40:24.239Z,21.40
2023-01-20T10:42:57.813Z,18.13
2023-01-20T10:45:52.851Z,18.63
2023-01-20T10:48:42.191Z,19.70
2023-01-20T10:51:18.395Z,20.13
2023-01-20T10:54:01.286Z,20.07
2023-01-20T10:56:53.638Z,20.10
2023-01-20T10:59:31.152Z,22.60
2023-01-20T11:02:30.935Z,18.60
2023-01-20T11:05:01.074Z,19.03
2023-01-20T11:07:31.479Z,20.23
2023-01-20T11:10:10.093Z,19.03
2023-01-20T11:12:41.641Z,20.93
2023-01-20T11:15:31.273Z,20.07
2023-01-20T11:18:16.961Z,18.10
2023-01-20T11:21:04.125Z,20.30
2023-01-20T11:23:38.490Z,18.47
2023-01-20T11:26:28.495Z,21.00
2023-01-20T11:28:58.645Z,18.83
2023-01-20T11:31:45.145Z,18.43
2023-01-20T11:34:29.571Z,16.60
2023-01-20T11:37:26.758Z,16.47
2023-01-20T11:40:00.217Z,19.90
2023-01-20T11:42:30.710Z,18.40
2023-01-20T11:45:20.353Z,18.43
2023-01-20T11:47:58.949Z,17.30
2023-01-20T11:50:34.382Z,19.33
2023-01-20T11:53:21.886Z,17.97
2023-01-20T11:55:57.284Z,16.83
2023-01-20T11:58:33.024Z,14.40
2023-01-20T12:01:07.995Z,15.53
2023-01-20T12:03:43.788Z,16.00
2023-01-20T12:06:18.187Z,15.33
2023-01-20T12:09:01.970Z,16.17
2023-01-20T12:11:37.253Z,14.53
2023-01-20T12:14:31.435Z,14.40
2023-01-20T12:17:18.025Z,15.70
2023-01-20T12:19:51.087Z,14.17
2023-01-20T12:22:44.566Z,13.07
2023-01-20T12:25:20.877Z,13.50
2023-01-20T12:27:54.665Z,14.43
2023-01-20T12:30:27.491Z,14.50
2023-01-20T12:32:54.655Z,13.97
2023-01-20T12:35:24.626Z,13.43
2023-01-20T12:37:57.343Z,13.80
2023-01-20T12:40:42.132Z,12.03
2023-01-20T12:43:31.846Z,11.20
2023-01-20T12:46:23.886Z,12.27
2023-01-20T12:49:05.896Z,12.37
2023-01-20T12:51:54.256Z,13.23
2023-01-20T12:54:42.959Z,10.77
2023-01-20T12:57:43.777Z,12.47
2023-01-20T13:00:23.775Z,13.20
2023-01-20T13:02:50.601Z,13.60
2023-01-20T13:05:40.445Z,15.20
2023-01-20T13:08:14.835Z,13.53
2023-01-20T13:11:04.635Z,13.40
2023-01-20T13:14:00.981Z,14.23
2023-01-20T13:16:56.108Z,15.00
2023-01-20T13:19:33.373Z,14.40
2023-01-20T13:22:13.189Z,13.90
2023-01-20T13:24:44.827Z,15.10
2023-01-20T13:27:13.936Z,16.13
2023-01-20T13:29:47.958Z,15.13
2023-01-20T13:32:33.569Z,16.40
2023-01-20T13:35:28.696Z,14.67
2023-01-20T13:37:57.962Z,15.23
2023-01-20T13:40:37.078Z,14.83
2023-01-20T13:43:25.628Z,16.73
2023-01-20T13:46:15.217Z,13.90
2023-01-20T13:49:20.519Z,15.63
2023-01-20T13:51:48.165Z,15.80
2023-01-20T13:54:45.946Z,14.23
2023-01-20T13:57:37.574Z,13.80
2023-01-20T14:00:12.807Z,13.37
2023-01-20T14:02:39.908Z,12.30
2023-01-20T14:05:20.614Z,14.93
2023-01-20T14:07:47.686Z,13.97
2023-01-20T14:10:15.265Z,15.50
2023-01-20T14:12:42.467Z,14.40
2023-01-20T14:15:32.500Z,14.40
2023-01-20T14:18:00.471Z,12.90
2023-01-20T14:20:28.831Z,14.30
2023-01-20T14:22:56.016Z,11.83
2023-01-20T14:25:26.920Z,13.13
2023-01-20T14:27:53.895Z,12.63
2023-01-20T14:30:28.146Z,12.30
2023-01-20T14:32:55.056Z,11.83
2023-01-20T14:35:27.522Z,13.53
2023-01-20T14:37:54.992Z,13.37
2023-01-20T14:40:26.934Z,12.93
2023-01-20T14:43:01.073Z,12.20
2023-01-20T14:45:30.718Z,13.03
2023-01-20T14:47:59.956Z,11.70
2023-01-20T14:50:27.421Z,12.40
2023-01-20T14:52:54.537Z,13.37
2023-01-20T14:55:43.463Z,11.60
2023-01-20T14:58:17.303Z,11.33
2023-01-20T15:00:46.634Z,11.80
2023-01-20T15:03:21.648Z,12.30
2023-01-20T15:05:56.496Z,12.70
2023-01-20T15:08:26.836Z,12.07
2023-01-20T15:11:18.851Z,12.67
2023-01-20T15:13:57.612Z,11.80
2023-01-20T15:16:27.019Z,10.90
2023-01-20T15:19:29.813Z,12.00
2023-01-20T15:22:16.322Z,11.57
2023-01-20T15:24:47.353Z,12.20
2023-01-20T15:27:34.254Z,11.80
2023-01-20T15:30:04.350Z,13.23
2023-01-20T15:32:31.496Z,12.13
2023-01-20T15:34:58.840Z,12.20
2023-01-20T15:37:25.741Z,12.47
2023-01-20T15:39:53.982Z,10.80
2023-01-20T15:42:20.953Z,10.47
2023-01-20T15:44:48.063Z,9.70
2023-01-20T15:47:30.953Z,10.03
2023-01-20T15:49:58.207Z,11.87
2023-01-20T15:52:25.623Z,10.97
2023-01-20T15:54:52.727Z,10.80
2023-01-20T15:57:19.734Z,9.50
2023-01-20T15:59:47.787Z,9.73
2023-01-20T16:02:21.150Z,11.57
2023-01-20T16:04:48.113Z,10.27
2023-01-20T16:07:17.576Z,9.50
2023-01-20T16:09:46.176Z,9.60
2023-01-20T16:12:14.335Z,9.20
2023-01-20T16:14:42.563Z,10.53
2023-01-20T16:17:14.940Z,9.97
2023-01-20T16:19:42.512Z,9.60
2023-01-20T16:22:10.554Z,10.53
2023-01-20T16:24:38.819Z,10.27
2023-01-20T16:27:20.054Z,9.10
2023-01-20T16:29:47.638Z,11.57
2023-01-20T16:32:17.745Z,10.50
2023-01-20T16:34:46.672Z,9.63
2023-01-20T16:37:14.770Z,10.77
2023-01-20T16:39:41.840Z,11.40
2023-01-20T16:42:16.197Z,9.10
2023-01-20T16:44:43.557Z,10.50
2023-01-20T16:47:10.454Z,10.10
2023-01-20T16:49:38.637Z,10.30
2023-01-20T16:52:05.788Z,9.37
2023-01-20T16:54:32.846Z,10.57
2023-01-20T16:56:59.746Z,8.97
2023-01-20T16:59:26.628Z,9.67
2023-01-20T17:01:53.677Z,9.90
2023-01-20T17:04:20.597Z,11.00
2023-01-20T17:06:47.441Z,8.80
2023-01-20T17:09:14.482Z,9.00
2023-01-20T17:11:41.826Z,10.30
2023-01-20T17:14:11.178Z,10.53
2023-01-20T17:16:38.921Z,8.37
2023-01-20T17:19:06.245Z,9.20
2023-01-20T17:21:39.367Z,10.20
2023-01-20T17:24:07.331Z,11.10
2023-01-20T17:26:34.610Z,10.40
2023-01-20T17:29:04.666Z,12.90
2023-01-20T17:31:35.612Z,9.57
2023-01-20T17:34:04.156Z,10.07
2023-01-20T17:36:34.484Z,9.77
2023-01-20T17:39:02.697Z,10.13
2023-01-20T17:41:29.572Z,10.37
2023-01-20T17:43:56.658Z,9.90
2023-01-20T17:46:27.685Z,10.97
2023-01-20T17:48:57.469Z,10.60
2023-01-20T17:51:27.169Z,9.30
2023-01-20T17:53:54.300Z,10.53
2023-01-20T17:56:22.549Z,10.90
2023-01-20T17:58:50.969Z,9.63
2023-01-20T18:01:26.757Z,10.60
2023-01-20T18:03:56.001Z,11.40
2023-01-20T18:06:24.705Z,11.63
2023-01-20T18:08:53.925Z,12.03
2023-01-20T18:11:22.957Z,12.23
2023-01-20T18:13:52.532Z,29.00
2023-01-20T18:16:21.702Z,18.57
2023-01-20T18:18:49.868Z,16.57
2023-01-20T18:21:22.518Z,23.80
2023-01-20T18:23:50.769Z,20.00
2023-01-20T18:26:20.793Z,15.03
2023-01-20T18:28:55.642Z,16.37
2023-01-20T18:31:24.673Z,15.17
2023-01-20T18:33:57.370Z,18.37
2023-01-20T18:36:33.157Z,16.83
2023-01-20T18:39:10.170Z,16.83
2023-01-20T18:41:37.843Z,15.17
2023-01-20T18:44:05.978Z,15.50
2023-01-20T18:46:33.261Z,16.30
2023-01-20T18:49:00.860Z,16.00
2023-01-20T18:51:29.914Z,16.30
2023-01-20T18:54:06.186Z,15.10
2023-01-20T18:56:34.256Z,15.00
2023-01-20T18:59:02.459Z,15.13
2023-01-20T19:01:34.458Z,14.77
2023-01-20T19:04:03.281Z,16.63
2023-01-20T19:06:34.411Z,14.77
2023-01-20T19:09:01.598Z,16.60
2023-01-20T19:11:34.587Z,16.43
2023-01-20T19:14:02.121Z,16.43
2023-01-20T19:16:36.369Z,15.67
2023-01-20T19:19:04.687Z,17.50
2023-01-20T19:21:33.143Z,17.53
2023-01-20T19:24:03.145Z,17.17
2023-01-20T19:26:30.033Z,17.80
2023-01-20T19:29:02.759Z,17.40
2023-01-20T19:31:31.494Z,16.80
2023-01-20T19:33:59.060Z,15.37
2023-01-20T19:36:26.384Z,14.83
2023-01-20T19:38:53.571Z,15.90
2023-01-20T19:41:28.431Z,16.57
2023-01-20T19:44:00.222Z,16.97
2023-01-20T19:46:29.545Z,17.57
2023-01-20T19:48:58.206Z,14.93
2023-01-20T19:51:26.065Z,15.60
2023-01-20T19:53:58.210Z,14.67
2023-01-20T19:56:27.871Z,15.17
2023-01-20T19:58:55.506Z,15.43
2023-01-20T20:01:27.704Z,16.73
2023-01-20T20:03:55.828Z,14.33
2023-01-20T20:06:27.431Z,15.40
2023-01-20T20:08:57.540Z,17.47
2023-01-20T20:11:24.476Z,16.47
2023-01-20T20:13:55.920Z,15.83
2023-01-20T20:16:23.823Z,16.60
2023-01-20T20:18:52.142Z,16.20
2023-01-20T20:21:19.643Z,16.53
2023-01-20T20:23:54.675Z,16.30
2023-01-20T20:26:24.000Z,15.80
2023-01-20T20:28:51.555Z,16.17
2023-01-20T20:31:19.291Z,16.20
2023-01-20T20:33:47.352Z,15.00
2023-01-20T20:36:15.353Z,16.03
2023-01-20T20:38:42.285Z,14.33
2023-01-20T20:41:10.064Z,14.77
2023-01-20T20:43:38.466Z,18.60
2023-01-20T20:46:06.895Z,18.07
2023-01-20T20:48:34.548Z,15.23
2023-01-20T20:51:19.934Z,15.00
2023-01-20T20:53:46.862Z,17.10
2023-01-20T20:56:15.855Z,16.80
2023-01-20T20:59:00.109Z,17.20
2023-01-20T21:01:28.815Z,17.70
2023-01-20T21:03:57.808Z,18.30
2023-01-20T21:06:25.311Z,19.40
2023-01-20T21:08:52.846Z,18.63
2023-01-20T21:11:24.086Z,15.90
2023-01-20T21:13:52.075Z,19.73
2023-01-20T21:16:22.505Z,17.27
2023-01-20T21:18:51.871Z,17.23
2023-01-20T21:21:21.919Z,17.70
2023-01-20T21:23:54.631Z,17.50
2023-01-20T21:26:23.158Z,14.40
2023-01-20T21:28:50.382Z,14.70
2023-01-20T21:31:21.350Z,16.17
2023-01-20T21:33:57.239Z,18.20
2023-01-20T21:36:25.286Z,16.10
2023-01-20T21:38:52.621Z,19.40
2023-01-20T21:41:20.067Z,16.70
2023-01-20T21:44:07.158Z,17.67
2023-01-20T21:46:38.932Z,16.00
2023-01-20T21:49:28.556Z,17.27
2023-01-20T21:52:15.307Z,16.93
2023-01-20T21:54:44.985Z,17.80
2023-01-20T21:57:12.294Z,15.83
2023-01-20T21:59:39.674Z,18.20
2023-01-20T22:02:07.903Z,17.40
2023-01-20T22:04:35.364Z,16.00
2023-01-20T22:07:02.648Z,15.60
2023-01-20T22:09:29.880Z,14.67
2023-01-20T22:11:56.819Z,16.90
2023-01-20T22:14:23.826Z,17.53
2023-01-20T22:16:50.956Z,18.13
2023-01-20T22:19:18.085Z,18.07
2023-01-20T22:21:45.082Z,15.70
2023-01-20T22:24:12.555Z,16.40
2023-01-20T22:26:39.764Z,18.17
2023-01-20T22:29:06.708Z,16.77
2023-01-20T22:31:34.371Z,15.90
2023-01-20T22:34:06.358Z,16.67
2023-01-20T22:36:34.201Z,17.57
2023-01-20T22:39:01.674Z,15.97
2023-01-20T22:41:28.909Z,15.83
2023-01-20T22:43:56.285Z,17.00
2023-01-20T22:46:25.992Z,17.60
2023-01-20T22:48:53.968Z,17.47
2023-01-20T22:51:23.454Z,18.00
2023-01-20T22:53:52.354Z,18.27
2023-01-20T22:56:21.682Z,18.17
2023-01-20T22:58:48.623Z,17.97
2023-01-20T23:01:21.274Z,16.67
2023-01-20T23:03:49.132Z,18.33
2023-01-20T23:06:16.087Z,19.70
2023-01-20T23:08:43.040Z,20.40
2023-01-20T23:11:13.183Z,17.40
2023-01-20T23:13:41.095Z,17.60
2023-01-20T23:16:13.049Z,21.30
2023-01-20T23:18:40.673Z,18.77
2023-01-20T23:21:07.798Z,18.20
2023-01-20T23:23:34.942Z,20.33
2023-01-20T23:26:17.276Z,18.33
2023-01-20T23:28:46.571Z,17.50
2023-01-20T23:31:15.664Z,19.47
2023-01-20T23:33:44.254Z,17.67
2023-01-20T23:36:16.359Z,20.00
2023-01-20T23:38:44.473Z,18.00
2023-01-20T23:41:12.880Z,18.80
2023-01-20T23:43:41.414Z,19.40
2023-01-20T23:46:09.475Z,17.60
2023-01-20T23:48:38.120Z,21.10
2023-01-20T23:51:06.543Z,17.47
2023-01-20T23:53:36.916Z,18.50
2023-01-20T23:56:06.878Z,18.20
2023-01-20T23:58:34.061Z,19.03
